createdAt,value
2023-05-11T00:02:32.769Z,0.90
2023-05-11T00:05:34.215Z,0.70
2023-05-11T00:08:35.697Z,0.77
2023-05-11T00:11:37.503Z,0.80
2023-05-11T00:14:38.991Z,1.00
2023-05-11T00:17:40.536Z,1.10
2023-05-11T00:20:42.557Z,0.90
2023-05-11T00:23:44.248Z,0.80
2023-05-11T00:26:45.735Z,0.80
2023-05-11T00:29:47.113Z,0.73
2023-05-11T00:32:51.388Z,1.00
2023-05-11T00:35:53.097Z,0.80
2023-05-11T00:38:54.554Z,0.93
2023-05-11T00:41:56.070Z,0.80
2023-05-11T00:44:58.095Z,1.00
2023-05-11T00:47:59.849Z,0.90
2023-05-11T00:51:03.497Z,1.10
2023-05-11T00:54:05.292Z,0.90
2023-05-11T00:57:06.820Z,0.90
2023-05-11T01:00:08.868Z,0.93
2023-05-11T01:03:10.791Z,0.90
2023-05-11T01:06:49.886Z,1.40
2023-05-11T01:10:06.274Z,0.90
2023-05-11T01:13:12.984Z,1.07
2023-05-11T01:16:21.074Z,0.83
2023-05-11T01:19:46.899Z,0.80
2023-05-11T01:23:07.997Z,0.80
2023-05-11T01:26:43.192Z,0.90
2023-05-11T01:30:03.692Z,0.90
2023-05-11T01:33:12.536Z,0.80
2023-05-11T01:36:16.577Z,0.83
2023-05-11T01:39:22.369Z,0.97
2023-05-11T01:42:36.387Z,0.80
2023-05-11T01:45:43.586Z,0.80
2023-05-11T01:48:49.073Z,1.00
2023-05-11T01:51:51.751Z,1.10
2023-05-11T01:54:55.296Z,1.10
2023-05-11T01:57:58.860Z,0.93
2023-05-11T02:01:03.533Z,0.93
2023-05-11T02:04:07.002Z,1.10
2023-05-11T02:07:11.801Z,1.00
2023-05-11T02:10:15.697Z,1.10
2023-05-11T02:13:18.941Z,0.90
2023-05-11T02:16:23.875Z,0.90
2023-05-11T02:19:26.103Z,1.10
2023-05-11T02:22:29.439Z,1.10
2023-05-11T02:25:31.793Z,0.87
2023-05-11T02:28:33.207Z,1.20
2023-05-11T02:31:40.467Z,1.27
2023-05-11T02:34:45.559Z,1.00
2023-05-11T02:37:49.437Z,1.00
2023-05-11T02:40:58.441Z,1.17
2023-05-11T02:44:03.850Z,1.17
2023-05-11T02:47:12.719Z,1.13
2023-05-11T02:50:18.114Z,1.10
2023-05-11T02:53:21.636Z,1.00
2023-05-11T02:56:24.798Z,1.10
2023-05-11T02:59:28.379Z,1.07
2023-05-11T03:02:29.874Z,1.03
2023-05-11T03:05:31.711Z,1.37
2023-05-11T03:08:33.395Z,1.40
2023-05-11T03:11:35.592Z,1.07
2023-05-11T03:14:38.732Z,1.07
2023-05-11T03:17:41.545Z,1.30
2023-05-11T03:20:47.904Z,1.10
2023-05-11T03:23:50.432Z,1.20
2023-05-11T03:26:54.009Z,1.20
2023-05-11T03:29:58.457Z,1.10
2023-05-11T03:33:00.153Z,1.10
2023-05-11T03:36:04.128Z,1.10
2023-05-11T03:39:09.237Z,1.13
2023-05-11T03:42:13.723Z,1.20
2023-05-11T03:45:18.343Z,0.90
2023-05-11T03:48:20.747Z,1.00
2023-05-11T03:51:22.912Z,1.13
2023-05-11T03:54:24.449Z,1.00
2023-05-11T03:57:26.283Z,1.10
2023-05-11T04:00:28.205Z,1.30
2023-05-11T04:03:29.956Z,1.10
2023-05-11T04:06:31.487Z,1.17
2023-05-11T04:09:41.569Z,0.90
2023-05-11T04:12:42.938Z,1.30
2023-05-11T04:15:44.355Z,1.10
2023-05-11T04:18:45.969Z,1.10
2023-05-11T04:21:47.473Z,1.03
2023-05-11T04:24:48.869Z,1.07
2023-05-11T04:27:50.285Z,1.30
2023-05-11T04:30:55.577Z,1.10
2023-05-11T04:33:57.166Z,1.00
2023-05-11T04:36:58.972Z,0.90
2023-05-11T04:40:02.194Z,1.07
2023-05-11T04:43:08.559Z,1.10
2023-05-11T04:46:10.266Z,1.10
2023-05-11T04:49:11.801Z,1.00
2023-05-11T04:52:14.513Z,1.10
2023-05-11T04:55:19.169Z,1.10
2023-05-11T04:58:21.626Z,1.30
2023-05-11T05:01:24.088Z,1.40
2023-05-11T05:04:25.627Z,1.40
2023-05-11T05:07:28.407Z,1.50
2023-05-11T05:10:30.807Z,1.50
2023-05-11T05:13:32.886Z,1.50
2023-05-11T05:16:34.775Z,1.50
2023-05-11T05:19:37.235Z,1.30
2023-05-11T05:22:40.029Z,1.37
2023-05-11T05:25:41.540Z,1.40
2023-05-11T05:28:43.100Z,1.40
2023-05-11T05:31:44.786Z,1.37
2023-05-11T05:34:47.494Z,1.23
2023-05-11T05:37:49.678Z,1.80
2023-05-11T05:40:51.682Z,1.33
2023-05-11T05:43:53.887Z,1.60
2023-05-11T05:46:55.756Z,1.53
2023-05-11T05:49:57.240Z,2.00
2023-05-11T05:52:59.273Z,1.60
2023-05-11T05:56:02.663Z,1.40
2023-05-11T05:59:05.005Z,2.17
2023-05-11T06:02:07.387Z,1.97
2023-05-11T06:05:10.008Z,2.20
2023-05-11T06:08:12.434Z,2.70
2023-05-11T06:11:14.507Z,2.80
2023-05-11T06:14:16.162Z,2.80
2023-05-11T06:17:18.998Z,3.20
2023-05-11T06:20:21.553Z,3.37
2023-05-11T06:23:23.137Z,3.23
2023-05-11T06:26:25.269Z,3.50
2023-05-11T06:29:27.583Z,3.07
2023-05-11T06:32:29.428Z,3.40
2023-05-11T06:35:30.976Z,3.70
2023-05-11T06:38:33.368Z,3.70
2023-05-11T06:41:35.157Z,3.87
2023-05-11T06:44:36.546Z,3.83
2023-05-11T06:47:39.679Z,4.23
2023-05-11T06:50:41.087Z,4.43
2023-05-11T06:53:42.552Z,4.20
2023-05-11T06:56:44.322Z,3.70
2023-05-11T06:59:45.781Z,3.90
2023-05-11T07:02:47.324Z,4.63
2023-05-11T07:05:48.890Z,4.50
2023-05-11T07:08:50.623Z,4.30
2023-05-11T07:11:52.666Z,4.47
2023-05-11T07:14:54.053Z,4.33
2023-05-11T07:17:55.659Z,4.00
2023-05-11T07:20:57.166Z,3.50
2023-05-11T07:23:59.184Z,3.50
2023-05-11T07:27:01.883Z,3.57
2023-05-11T07:30:04.320Z,3.57
2023-05-11T07:33:06.518Z,3.63
2023-05-11T07:36:08.087Z,3.80
2023-05-11T07:39:10.658Z,3.60
2023-05-11T07:42:12.550Z,3.60
2023-05-11T07:45:14.007Z,4.07
2023-05-11T07:48:15.386Z,3.87
2023-05-11T07:51:17.502Z,4.10
2023-05-11T07:54:20.939Z,3.80
2023-05-11T07:57:23.248Z,3.60
2023-05-11T08:00:24.776Z,3.60
2023-05-11T08:03:26.262Z,4.27
2023-05-11T08:06:27.861Z,3.00
2023-05-11T08:09:29.542Z,4.00
2023-05-11T08:12:30.932Z,3.90
2023-05-11T08:15:32.604Z,3.70
2023-05-11T08:18:34.106Z,3.67
2023-05-11T08:21:35.794Z,3.57
2023-05-11T08:24:37.296Z,3.50
2023-05-11T08:27:38.702Z,3.30
2023-05-11T08:30:40.237Z,3.47
2023-05-11T08:33:42.026Z,3.10
2023-05-11T08:36:44.405Z,3.20
2023-05-11T08:39:47.856Z,3.37
2023-05-11T08:42:53.247Z,3.17
2023-05-11T08:45:57.528Z,3.00
2023-05-11T08:48:59.288Z,3.53
2023-05-11T08:52:08.407Z,2.97
2023-05-11T08:55:10.356Z,2.93
2023-05-11T08:58:14.966Z,3.60
2023-05-11T09:01:19.136Z,3.13
2023-05-11T09:04:24.333Z,2.80
2023-05-11T09:07:26.859Z,3.20
2023-05-11T09:10:28.449Z,3.70
2023-05-11T09:13:31.777Z,3.27
2023-05-11T09:16:37.561Z,3.40
2023-05-11T09:20:00.638Z,3.50
2023-05-11T09:23:02.476Z,3.43
2023-05-11T09:26:03.904Z,3.43
2023-05-11T09:29:05.680Z,3.00
2023-05-11T09:32:07.440Z,3.83
2023-05-11T09:35:39.050Z,3.27
2023-05-11T09:38:40.716Z,3.30
2023-05-11T09:41:42.388Z,3.27
2023-05-11T09:44:45.240Z,2.90
2023-05-11T09:47:49.028Z,3.13
2023-05-11T09:50:58.094Z,2.97
2023-05-11T09:54:00.902Z,3.10
2023-05-11T09:57:02.313Z,2.70
2023-05-11T10:00:05.666Z,3.10
2023-05-11T10:03:13.607Z,2.87
2023-05-11T10:06:16.500Z,2.67
2023-05-11T10:09:24.805Z,3.00
2023-05-11T10:12:27.359Z,2.63
2023-05-11T10:15:30.712Z,2.70
2023-05-11T10:18:32.757Z,2.70
2023-05-11T10:21:35.374Z,2.43
2023-05-11T10:24:37.025Z,2.53
2023-05-11T10:27:38.529Z,2.60
2023-05-11T10:30:41.524Z,2.70
2023-05-11T10:33:43.445Z,2.70
2023-05-11T10:36:46.900Z,2.70
2023-05-11T10:39:51.661Z,2.53
2023-05-11T10:43:17.078Z,2.30
2023-05-11T10:46:40.352Z,3.00
2023-05-11T10:49:52.007Z,2.40
2023-05-11T10:53:04.551Z,2.53
2023-05-11T10:56:42.850Z,2.70
2023-05-11T11:00:30.758Z,2.73
2023-05-11T11:03:32.504Z,2.90
2023-05-11T11:06:35.856Z,2.80
2023-05-11T11:10:00.020Z,2.87
2023-05-11T11:13:09.103Z,3.17
2023-05-11T11:16:13.795Z,3.07
2023-05-11T11:19:32.231Z,3.00
2023-05-11T11:22:41.174Z,3.03
2023-05-11T11:25:56.243Z,2.50
2023-05-11T11:28:57.653Z,3.07
2023-05-11T11:32:21.043Z,2.47
2023-05-11T11:35:44.758Z,2.90
2023-05-11T11:39:00.043Z,3.03
2023-05-11T11:42:04.316Z,2.90
2023-05-11T11:45:28.265Z,3.00
2023-05-11T11:48:37.882Z,3.20
2023-05-11T11:51:40.813Z,3.10
2023-05-11T11:54:45.089Z,2.80
2023-05-11T11:57:50.942Z,3.13
2023-05-11T12:00:52.655Z,3.20
2023-05-11T12:04:13.367Z,3.17
2023-05-11T12:07:15.878Z,3.37
2023-05-11T12:10:19.381Z,2.90
2023-05-11T12:13:21.508Z,2.30
2023-05-11T12:16:22.966Z,2.70
2023-05-11T12:19:24.504Z,2.97
2023-05-11T12:22:26.305Z,2.70
2023-05-11T12:25:27.832Z,2.90
2023-05-11T12:28:29.266Z,2.50
2023-05-11T12:31:35.362Z,3.27
2023-05-11T12:34:36.829Z,3.10
2023-05-11T12:37:41.622Z,2.90
2023-05-11T12:40:50.885Z,3.13
2023-05-11T12:43:54.548Z,3.03
2023-05-11T12:46:56.077Z,3.00
2023-05-11T12:49:57.602Z,2.83
2023-05-11T12:53:19.083Z,3.03
2023-05-11T12:56:20.881Z,2.27
2023-05-11T12:59:25.694Z,2.70
2023-05-11T13:02:27.138Z,2.10
2023-05-11T13:05:29.709Z,1.90
2023-05-11T13:08:31.196Z,1.93
2023-05-11T13:11:32.596Z,2.20
2023-05-11T13:14:34.271Z,1.97
2023-05-11T13:17:38.045Z,2.60
2023-05-11T13:20:39.957Z,2.30
2023-05-11T13:23:41.391Z,2.53
2023-05-11T13:26:42.848Z,2.30
2023-05-11T13:29:44.245Z,2.53
2023-05-11T13:32:45.784Z,2.33
2023-05-11T13:35:47.280Z,2.70
2023-05-11T13:38:48.713Z,2.57
2023-05-11T13:41:50.244Z,2.50
2023-05-11T13:44:51.745Z,2.60
2023-05-11T13:47:55.076Z,2.67
2023-05-11T13:50:56.713Z,2.40
2023-05-11T13:53:59.905Z,2.60
2023-05-11T13:57:01.816Z,2.70
2023-05-11T14:00:03.602Z,2.40
2023-05-11T14:03:13.201Z,2.50
2023-05-11T14:06:14.923Z,2.20
2023-05-11T14:09:16.461Z,2.30
2023-05-11T14:12:18.382Z,2.30
2023-05-11T14:15:20.236Z,2.70
2023-05-11T14:18:24.753Z,2.30
2023-05-11T14:21:26.363Z,2.30
2023-05-11T14:24:27.818Z,2.20
2023-05-11T14:27:29.191Z,2.17
2023-05-11T14:30:30.958Z,2.00
2023-05-11T14:33:32.530Z,1.80
2023-05-11T14:36:34.038Z,2.43
2023-05-11T14:39:35.945Z,2.37
2023-05-11T14:42:37.817Z,1.93
2023-05-11T14:45:39.332Z,2.30
2023-05-11T14:48:40.994Z,1.93
2023-05-11T14:51:42.369Z,2.00
2023-05-11T14:54:43.747Z,1.80
2023-05-11T14:57:45.218Z,1.80
2023-05-11T15:00:47.554Z,2.10
2023-05-11T15:03:49.072Z,2.13
2023-05-11T15:06:50.474Z,2.17
2023-05-11T15:09:52.113Z,1.93
2023-05-11T15:12:53.708Z,1.80
2023-05-11T15:15:56.123Z,1.80
2023-05-11T15:18:57.659Z,1.60
2023-05-11T15:21:59.572Z,1.40
2023-05-11T15:25:01.176Z,1.40
2023-05-11T15:28:03.713Z,1.50
2023-05-11T15:31:05.354Z,1.87
2023-05-11T15:34:06.877Z,1.93
2023-05-11T15:37:08.430Z,1.87
2023-05-11T15:40:10.007Z,1.67
2023-05-11T15:43:11.634Z,1.60
2023-05-11T15:46:13.483Z,1.90
2023-05-11T15:49:15.755Z,2.13
2023-05-11T15:52:17.254Z,1.80
2023-05-11T15:55:18.663Z,1.70
2023-05-11T15:58:20.166Z,1.53
2023-05-11T16:01:21.974Z,1.33
2023-05-11T16:04:23.783Z,1.13
2023-05-11T16:07:25.711Z,1.40
2023-05-11T16:10:27.151Z,1.63
2023-05-11T16:13:28.565Z,1.60
2023-05-11T16:16:30.087Z,1.60
2023-05-11T16:19:32.359Z,1.60
2023-05-11T16:22:35.300Z,1.70
2023-05-11T16:25:36.795Z,1.70
2023-05-11T16:28:38.350Z,1.60
2023-05-11T16:31:40.962Z,2.00
2023-05-11T16:34:42.570Z,2.03
2023-05-11T16:37:43.947Z,2.10
2023-05-11T16:40:45.739Z,1.80
2023-05-11T16:43:47.589Z,2.30
2023-05-11T16:46:49.142Z,2.73
2023-05-11T16:49:50.697Z,2.23
2023-05-11T16:52:52.082Z,2.23
2023-05-11T16:55:54.954Z,2.27
2023-05-11T16:58:56.342Z,3.00
2023-05-11T17:01:57.792Z,3.17
2023-05-11T17:04:59.311Z,3.23
2023-05-11T17:08:00.820Z,4.10
2023-05-11T17:11:02.456Z,4.10
2023-05-11T17:14:04.032Z,4.33
2023-05-11T17:17:07.332Z,4.10
2023-05-11T17:20:10.058Z,3.93
2023-05-11T17:23:11.554Z,3.80
2023-05-11T17:26:13.744Z,3.30
2023-05-11T17:29:18.270Z,2.93
2023-05-11T17:32:19.914Z,2.70
2023-05-11T17:35:21.649Z,2.70
2023-05-11T17:38:23.115Z,2.63
2023-05-11T17:41:24.708Z,2.40
2023-05-11T17:44:26.190Z,2.50
2023-05-11T17:47:27.658Z,2.37
2023-05-11T17:50:29.138Z,3.17
2023-05-11T17:53:30.581Z,2.50
2023-05-11T17:56:32.002Z,2.30
2023-05-11T17:59:33.712Z,2.30
2023-05-11T18:02:35.255Z,2.40
2023-05-11T18:05:48.173Z,2.60
2023-05-11T18:08:50.538Z,2.23
2023-05-11T18:11:51.918Z,2.63
2023-05-11T18:14:53.321Z,2.40
2023-05-11T18:17:57.242Z,2.63
2023-05-11T18:21:03.666Z,2.90
2023-05-11T18:24:06.080Z,2.60
2023-05-11T18:27:08.405Z,3.10
2023-05-11T18:30:10.607Z,2.80
2023-05-11T18:33:12.052Z,3.20
2023-05-11T18:36:14.883Z,3.00
2023-05-11T18:39:16.365Z,3.13
2023-05-11T18:42:18.570Z,4.00
2023-05-11T18:45:20.035Z,3.67
2023-05-11T18:48:22.119Z,3.57
2023-05-11T18:51:23.778Z,4.30
2023-05-11T18:54:25.220Z,4.03
2023-05-11T18:57:26.698Z,3.63
2023-05-11T19:00:28.289Z,3.77
2023-05-11T19:03:32.152Z,3.57
2023-05-11T19:06:35.543Z,3.80
2023-05-11T19:09:37.063Z,3.90
2023-05-11T19:12:38.463Z,4.30
2023-05-11T19:15:41.449Z,4.70
2023-05-11T19:18:42.956Z,4.40
2023-05-11T19:21:45.383Z,4.50
2023-05-11T19:24:46.787Z,4.50
2023-05-11T19:27:53.326Z,4.70
2023-05-11T19:31:02.864Z,4.30
2023-05-11T19:34:04.396Z,5.07
2023-05-11T19:37:06.911Z,5.10
2023-05-11T19:40:42.996Z,5.00
2023-05-11T19:43:30.182Z,5.37
2023-05-11T19:46:31.622Z,5.30
2023-05-11T19:49:34.008Z,5.00
2023-05-11T19:52:36.602Z,5.10
2023-05-11T19:55:39.628Z,5.20
2023-05-11T19:58:41.635Z,5.40
2023-05-11T20:01:43.820Z,5.60
2023-05-11T20:04:46.805Z,6.50
2023-05-11T20:07:48.241Z,6.43
2023-05-11T20:10:49.813Z,6.47
2023-05-11T20:13:52.760Z,6.83
2023-05-11T20:16:54.502Z,6.77
2023-05-11T20:19:56.257Z,6.70
2023-05-11T20:22:58.387Z,6.63
2023-05-11T20:25:59.850Z,7.20
2023-05-11T20:29:01.287Z,7.13
2023-05-11T20:32:03.358Z,6.93
2023-05-11T20:35:05.465Z,6.90
2023-05-11T20:38:07.807Z,7.00
2023-05-11T20:41:10.087Z,6.53
2023-05-11T20:44:13.810Z,6.80
2023-05-11T20:47:15.314Z,7.87
2023-05-11T20:50:17.245Z,7.50
2023-05-11T20:53:19.193Z,7.30
2023-05-11T20:56:21.027Z,7.40
2023-05-11T21:02:26.976Z,6.97
2023-05-11T21:05:28.377Z,7.03
2023-05-11T21:08:29.805Z,7.07
2023-05-11T21:11:31.193Z,7.00
2023-05-11T21:14:32.671Z,7.23
2023-05-11T21:17:34.224Z,6.27
2023-05-11T21:20:35.972Z,6.67
2023-05-11T21:23:37.427Z,6.80
2023-05-11T21:26:38.826Z,5.83
2023-05-11T21:29:41.050Z,6.33
2023-05-11T21:32:42.486Z,6.90
2023-05-11T21:35:43.936Z,6.77
2023-05-11T21:38:45.413Z,6.57
2023-05-11T21:41:47.692Z,7.20
2023-05-11T21:44:49.080Z,7.37
2023-05-11T21:47:50.488Z,7.00
2023-05-11T21:50:53.713Z,7.13
2023-05-11T21:53:55.081Z,7.57
2023-05-11T21:56:56.445Z,7.67
2023-05-11T21:59:57.963Z,8.37
2023-05-11T22:02:59.435Z,7.63
2023-05-11T22:06:01.297Z,8.30
2023-05-11T22:09:03.792Z,8.87
2023-05-11T22:12:05.812Z,8.23
2023-05-11T22:15:08.704Z,8.90
2023-05-11T22:18:10.210Z,8.53
2023-05-11T22:21:11.713Z,8.37
2023-05-11T22:24:13.603Z,8.70
2023-05-11T22:27:17.978Z,8.93
2023-05-11T22:30:19.778Z,8.93
2023-05-11T22:33:21.501Z,9.23
2023-05-11T22:36:22.995Z,8.83
2023-05-11T22:39:24.506Z,9.60
2023-05-11T22:42:25.874Z,9.07
2023-05-11T22:45:27.260Z,8.67
2023-05-11T22:48:28.641Z,8.90
2023-05-11T22:51:30.190Z,9.33
2023-05-11T22:54:31.685Z,9.10
2023-05-11T22:57:33.062Z,8.80
2023-05-11T23:00:34.523Z,8.90
2023-05-11T23:03:35.974Z,8.83
2023-05-11T23:06:37.440Z,8.57
2023-05-11T23:09:38.933Z,9.03
2023-05-11T23:12:40.522Z,8.37
2023-05-11T23:15:41.923Z,9.97
2023-05-11T23:18:43.545Z,9.33
2023-05-11T23:21:45.430Z,9.77
2023-05-11T23:24:46.979Z,9.90
2023-05-11T23:27:48.531Z,10.37
2023-05-11T23:30:49.932Z,9.50
2023-05-11T23:33:51.332Z,8.93
2023-05-11T23:36:52.909Z,9.10
2023-05-11T23:39:54.392Z,9.40
2023-05-11T23:42:55.797Z,9.60
2023-05-11T23:45:57.629Z,9.47
2023-05-11T23:48:59.066Z,9.60
2023-05-11T23:52:00.445Z,10.00
2023-05-11T23:55:02.126Z,9.23
2023-05-11T23:58:03.523Z,9.73
